Aérodrome :
LOGIN :

S'inscrire | Disclaimer

   EN    FR    IT 

 










Légende :    VFR   VFR Marginal   IFR   IFR Intensif   IFR Très Intensif
Visi : 
Plafond : 
>= 8 km
>= 3000ft
5 à 8 km
1000 à 3000 ft
1500m à 5 km
500 à 1000 ft
800 à 1500m
200 à 500 ft
< 800m
< 200 ft
Symboles :   Orages  Brouillard  Fortes neiges  Fortes précipitations  Vent > 20 kt
SIGMETs :   Divers  Orages  Givrage  Turbulence  Onde Orograph.  Cendres Volcan.







- Altitude de l'aérodrome : 56 ft


LPOV - Ovar Air Base

DERNIER METAR :
  • 130100Z 21012KT 6000 -RA BKN007 BKN014 13/13 Q1010 RERA

METARs EXPIRÉS :
  • 130000Z 17017KT 5000 -RA BR BKN007 BKN014 13/13 Q1010
  • 122300Z 18016KT 5000 -RA BR BKN007 BKN014 13/13 Q1011

TAF TAF LPOV
Valide du 13 à 00h jusqu'au 14 à 00h UTC


122306Z 1300/1324 18020KT 6000 -RADZ SCT012 BKN020
TEMPO 1300/1302 17025G35KT 2000 RA BR BKN005 BKN014
BECMG 1301/1303 31020KT 9999 NSW SCT020
TEMPO 1302/1320 33020G30KT 7000 -SHRA FEW018TCU BKN020
PROB40
TEMPO 1302/1313 32025G35KT 3000 TSRAGS BKN014 SCT018CB
BECMG 1319/1321 35008KT
Pas de NOTAMs connus pour ce terrain.
1 SIGMET publié pour la FIR Lisboa (LPPC) :
 
Turbulence forte
LPPC SIGMET 2 VALID 122345/130300 LPPT
LPPC LISBON FIR SEV TURB FCST WI N3215 W01438 - N3630 W01500 - N4200 W01500 - N4000 W01200 - N3558 W01200 - N3215 W01438 FL270/390 MOV E 40KT NC=



MET'MAP, la Météo Aéronautique d'un coup d'oeil ! - Copyright ORBIFLY Décembre 2007 - Disclaimer

ORBIFLY MET'MAP TEAM :

Programmation & Développement : Alexandra Zaïnal
Conception & Développement : Baudouin d'Aumeries
Co-Programmation & Développement : Marc-Olivier Méhu
Soutien technique & logistique : Manuel Goepfert

Contact : metmap@orbifly.com




SOURCES & CREDITS :

   NOAA